Andrews Air Force Base Camp Springs US
ICAO: KADW
IATA: ADW
Category: Large
Scheduled Services: No

Elevation: 280 ft
TransAlt. 18000 ft.

Airport Communications:
POTOMAC APP:119.3
ATIS:113.1
CLNC DEL:127.55
POTOMAC DEP:125.65
GND:121.8
AFRC OPS:143.8
PMSV METRO:34.46
COMD POST:141.55
PTD:139.3
TWR:118.4

KADW Zoom In..

If you have problems with the map follow the link
https://www.worldairports.se/pages/airport.php?
ICAO=KADW

Runways:

(A) RW 01L length 9318 ft width 200 ft
ILS 111.50 / hdg 10

(B) RW 01R length 9756 ft width 150 ft
ILS 110.50 / hdg 10

(C) RW 19L length 9756 ft width 150 ft
ILS 110.50 / hdg 190

(D) RW 19R length 9318 ft width 200 ft
ILS 111.50 / hdg 190

Location; KADW
Day. 28 / Time. 13.56 Zulu
* Altimeter: 29.93
* Temperature: 05° c. 41°f.
* Wind from: 310° Speed 10 kn.
Dewpoint: -02° c.
Visibility: 10 Statute Miles.
Clouds: Broken 5000 ft.

KADW 281356Z AUTO 31010KT 10SM BKN050 05/M02 A2993 RMK AO2 SLP144 T00501019 $


Wind From 310°
Speed 10 kn.

 
 
jpsmedia worldairports.se 2020   terms of use